createdAt,value
2022-08-25T00:01:50.796Z,18.20
2022-08-25T00:04:18.470Z,17.20
2022-08-25T00:06:46.330Z,17.50
2022-08-25T00:23:56.665Z,17.30
2022-08-25T00:26:23.633Z,18.20
2022-08-25T00:28:50.291Z,18.40
2022-08-25T00:33:49.773Z,16.80
2022-08-25T00:36:16.587Z,16.90
2022-08-25T01:03:15.791Z,16.50
2022-08-25T01:05:43.416Z,16.40
2022-08-25T01:08:10.751Z,17.60
2022-08-25T01:10:39.274Z,17.90
2022-08-25T01:13:16.342Z,17.90
2022-08-25T01:15:44.375Z,17.90
2022-08-25T01:18:11.844Z,17.70
2022-08-25T01:20:38.582Z,16.10
2022-08-25T01:23:05.333Z,16.10
2022-08-25T01:25:39.684Z,17.40
2022-08-25T01:28:06.599Z,16.40
2022-08-25T01:30:34.410Z,17.30
2022-08-25T01:33:08.607Z,16.80
2022-08-25T01:35:35.849Z,16.30
2022-08-25T01:38:04.004Z,17.20
2022-08-25T01:40:31.731Z,16.10
2022-08-25T01:43:03.637Z,17.40
2022-08-25T01:50:24.683Z,15.90
2022-08-25T01:52:51.408Z,16.30
2022-08-25T01:55:18.224Z,16.60
2022-08-25T01:57:44.885Z,16.10
2022-08-25T02:00:14.524Z,17.30
2022-08-25T02:02:42.802Z,16.10
2022-08-25T02:05:11.389Z,16.40
2022-08-25T02:07:38.410Z,16.60
2022-08-25T02:10:06.602Z,16.60
2022-08-25T02:12:33.683Z,16.00
2022-08-25T02:15:01.798Z,16.10
2022-08-25T02:17:29.414Z,16.10
2022-08-25T02:19:57.136Z,16.20
2022-08-25T02:22:23.899Z,15.90
2022-08-25T02:24:50.635Z,16.50
2022-08-25T02:27:17.287Z,16.10
2022-08-25T02:29:43.920Z,17.10
2022-08-25T02:32:11.022Z,17.00
2022-08-25T02:34:37.768Z,15.90
2022-08-25T02:37:04.455Z,15.90
2022-08-25T02:39:31.149Z,15.90
2022-08-25T02:41:59.983Z,16.60
2022-08-25T02:44:26.664Z,16.30
2022-08-25T02:46:53.397Z,16.20
2022-08-25T02:49:20.040Z,15.50
2022-08-25T02:51:47.004Z,15.90
2022-08-25T02:54:13.676Z,16.90
2022-08-25T02:56:41.253Z,16.50
2022-08-25T02:59:07.989Z,15.60
2022-08-25T03:01:34.709Z,15.50
2022-08-25T03:04:02.027Z,15.40
2022-08-25T03:08:55.897Z,15.20
2022-08-25T03:11:22.545Z,16.70
2022-08-25T03:13:51.018Z,14.90
2022-08-25T03:16:18.448Z,17.00
2022-08-25T03:18:45.237Z,16.20
2022-08-25T03:21:12.320Z,16.90
2022-08-25T03:23:39.938Z,15.80
2022-08-25T03:26:25.358Z,16.40
2022-08-25T03:28:52.017Z,16.90
2022-08-25T03:31:19.203Z,16.50
2022-08-25T03:33:46.261Z,15.40
2022-08-25T03:36:13.012Z,16.70
2022-08-25T03:38:39.992Z,16.30
2022-08-25T03:41:14.972Z,15.20
2022-08-25T03:46:08.922Z,15.10
2022-08-25T03:48:35.687Z,15.90
2022-08-25T03:53:29.393Z,15.10
2022-08-25T03:55:57.052Z,15.00
2022-08-25T03:58:23.890Z,15.60
2022-08-25T04:00:50.539Z,15.30
2022-08-25T04:03:17.803Z,15.40
2022-08-25T04:05:44.477Z,15.30
2022-08-25T04:08:11.559Z,15.50
2022-08-25T04:10:38.832Z,14.40
2022-08-25T04:13:05.561Z,14.60
2022-08-25T04:15:32.242Z,14.80
2022-08-25T04:17:59.243Z,15.90
2022-08-25T04:20:25.984Z,15.20
2022-08-25T04:22:52.932Z,14.80
2022-08-25T04:25:19.831Z,16.10
2022-08-25T04:27:46.545Z,14.90
2022-08-25T04:30:13.556Z,14.60
2022-08-25T04:32:40.214Z,14.50
2022-08-25T04:35:07.591Z,13.70
2022-08-25T04:37:34.728Z,14.40
2022-08-25T04:40:01.767Z,14.70
2022-08-25T04:42:28.620Z,16.10
2022-08-25T04:44:55.879Z,15.90
2022-08-25T04:47:22.583Z,16.00
2022-08-25T04:49:49.290Z,16.10
2022-08-25T04:52:15.991Z,15.30
2022-08-25T04:54:42.929Z,15.20
2022-08-25T04:57:09.988Z,14.20
2022-08-25T04:59:36.662Z,15.10
2022-08-25T05:02:05.297Z,15.60
2022-08-25T05:04:33.472Z,14.80
2022-08-25T05:07:00.345Z,15.10
2022-08-25T05:09:27.349Z,14.70
2022-08-25T05:11:55.012Z,14.60
2022-08-25T05:14:25.671Z,15.60
2022-08-25T05:16:54.032Z,16.20
2022-08-25T05:19:20.772Z,14.90
2022-08-25T05:21:47.938Z,15.40
2022-08-25T05:24:14.641Z,15.80
2022-08-25T05:26:41.733Z,16.10
2022-08-25T05:29:10.871Z,16.30
2022-08-25T05:31:42.266Z,15.10
2022-08-25T05:34:12.130Z,16.70
2022-08-25T05:36:43.194Z,16.20
2022-08-25T05:39:10.741Z,15.90
2022-08-25T05:41:37.806Z,16.20
2022-08-25T05:44:04.655Z,15.40
2022-08-25T05:46:31.962Z,15.50
2022-08-25T05:48:59.083Z,16.10
2022-08-25T06:01:38.131Z,16.20
2022-08-25T06:04:05.153Z,16.40
2022-08-25T06:06:32.319Z,17.30
2022-08-25T06:08:59.046Z,16.50
2022-08-25T06:11:25.737Z,16.70
2022-08-25T06:50:40.462Z,18.80
2022-08-25T06:53:07.210Z,19.10
2022-08-25T06:55:35.221Z,19.10
2022-08-25T06:58:03.436Z,19.40
2022-08-25T07:08:10.943Z,19.60
2022-08-25T07:20:29.336Z,20.60
2022-08-25T07:22:57.853Z,20.50
2022-08-25T07:27:54.760Z,21.10
2022-08-25T07:30:23.790Z,21.40
2022-08-25T07:32:51.334Z,21.60
2022-08-25T07:35:26.251Z,21.50
2022-08-25T07:37:59.317Z,22.00
2022-08-25T07:40:28.102Z,22.30
2022-08-25T07:42:56.322Z,22.50
2022-08-25T07:45:30.367Z,22.70
2022-08-25T07:48:01.504Z,22.90
2022-08-25T07:50:29.768Z,23.20
2022-08-25T07:52:57.007Z,23.40
2022-08-25T07:55:26.040Z,23.80
2022-08-25T07:57:56.327Z,23.90
2022-08-25T08:00:27.702Z,23.90
2022-08-25T08:02:54.811Z,24.30
2022-08-25T08:05:23.843Z,24.20
2022-08-25T08:07:51.198Z,24.60
2022-08-25T08:11:00.519Z,24.40
2022-08-25T08:13:07.362Z,24.70
2022-08-25T08:15:34.778Z,25.20
2022-08-25T08:18:03.584Z,24.70
2022-08-25T08:20:42.574Z,24.60
2022-08-25T08:23:10.496Z,24.40
2022-08-25T08:25:37.213Z,24.40
2022-08-25T08:28:04.276Z,24.70
2022-08-25T08:30:36.550Z,25.00
2022-08-25T08:33:10.128Z,25.20
2022-08-25T08:35:39.149Z,25.00
2022-08-25T08:38:13.128Z,25.00
2022-08-25T08:41:10.072Z,25.30
2022-08-25T08:43:37.310Z,25.20
2022-08-25T08:46:07.581Z,25.60
2022-08-25T08:48:53.849Z,25.70
2022-08-25T08:51:24.544Z,25.80
2022-08-25T08:54:06.460Z,26.70
2022-08-25T08:56:45.343Z,26.40
2022-08-25T09:01:54.112Z,26.20
2022-08-25T09:04:26.418Z,26.40
2022-08-25T09:06:55.124Z,26.90
2022-08-25T09:14:35.279Z,26.80
2022-08-25T09:17:17.454Z,26.70
2022-08-25T09:19:44.144Z,26.70
2022-08-25T09:22:33.387Z,26.40
2022-08-25T09:25:08.305Z,26.60
2022-08-25T09:27:47.015Z,26.10
2022-08-25T09:30:17.780Z,26.50
2022-08-25T09:32:50.396Z,26.40
2022-08-25T09:40:13.517Z,26.80
2022-08-25T09:42:49.721Z,26.80
2022-08-25T09:45:30.085Z,26.30
2022-08-25T09:47:56.767Z,26.10
2022-08-25T09:50:23.527Z,26.80
2022-08-25T09:52:53.533Z,27.20
2022-08-25T09:55:27.043Z,26.60
2022-08-25T09:57:57.909Z,26.70
2022-08-25T10:00:28.016Z,27.00
2022-08-25T10:03:09.690Z,26.80
2022-08-25T10:05:59.700Z,26.70
2022-08-25T10:08:26.575Z,27.70
2022-08-25T10:10:55.774Z,28.00
2022-08-25T10:13:33.029Z,28.30
2022-08-25T10:16:24.516Z,28.00
2022-08-25T10:19:00.918Z,27.60
2022-08-25T10:21:27.664Z,27.70
2022-08-25T10:23:56.274Z,27.60
2022-08-25T10:26:30.314Z,27.60
2022-08-25T10:29:04.883Z,28.60
2022-08-25T10:43:49.130Z,30.50
2022-08-25T10:46:34.562Z,31.10
2022-08-25T10:54:16.879Z,30.60
2022-08-25T10:56:53.018Z,31.20
2022-08-25T10:59:29.795Z,30.90
2022-08-25T11:02:11.455Z,30.70
2022-08-25T11:04:40.178Z,30.30
2022-08-25T11:07:15.665Z,31.20
2022-08-25T11:09:47.900Z,30.70
2022-08-25T11:12:22.354Z,30.20
2022-08-25T11:14:54.276Z,30.00
2022-08-25T11:19:50.206Z,29.40
2022-08-25T11:27:38.744Z,29.00
2022-08-25T11:30:10.674Z,29.40
2022-08-25T11:32:38.407Z,29.10
2022-08-25T11:35:07.720Z,30.00
2022-08-25T11:37:36.050Z,30.80
2022-08-25T11:42:59.129Z,31.20
2022-08-25T11:45:29.621Z,30.70
2022-08-25T11:48:07.956Z,31.60
2022-08-25T11:53:11.520Z,31.60
2022-08-25T11:58:25.162Z,32.20
2022-08-25T12:00:52.633Z,32.60
2022-08-25T12:30:50.791Z,30.40
2022-08-25T12:33:30.079Z,30.40
2022-08-25T12:38:35.077Z,31.50
2022-08-25T12:41:09.722Z,32.00
2022-08-25T12:46:19.844Z,29.90
2022-08-25T12:49:05.304Z,29.80
2022-08-25T12:51:35.424Z,29.70
2022-08-25T12:54:19.140Z,29.80
2022-08-25T12:56:58.142Z,30.20
2022-08-25T12:59:33.054Z,31.30
2022-08-25T13:02:15.174Z,30.70
2022-08-25T13:04:57.509Z,30.80
2022-08-25T13:07:24.163Z,30.90
2022-08-25T13:10:11.701Z,30.40
2022-08-25T13:12:48.242Z,30.80
2022-08-25T13:17:42.390Z,32.60
2022-08-25T13:20:18.636Z,33.40
2022-08-25T13:22:53.999Z,33.00
2022-08-25T13:25:27.775Z,32.70
2022-08-25T13:28:01.014Z,32.90
2022-08-25T13:30:29.360Z,32.60
2022-08-25T13:32:56.715Z,34.00
2022-08-25T13:35:32.395Z,33.80
2022-08-25T13:38:12.867Z,33.80
2022-08-25T13:40:39.744Z,33.40
2022-08-25T13:43:11.367Z,33.80
2022-08-25T13:45:41.264Z,33.90
2022-08-25T13:48:20.756Z,34.00
2022-08-25T13:53:23.844Z,33.50
2022-08-25T13:55:52.058Z,33.20
2022-08-25T13:58:24.972Z,33.20
2022-08-25T14:01:23.516Z,31.80
2022-08-25T14:03:56.465Z,31.70
2022-08-25T14:06:28.314Z,31.90
2022-08-25T14:08:58.002Z,31.80
2022-08-25T14:11:30.234Z,32.00
2022-08-25T14:14:01.697Z,31.90
2022-08-25T14:16:31.606Z,32.30
2022-08-25T14:19:00.701Z,32.80
2022-08-25T14:21:29.272Z,33.20
2022-08-25T14:26:23.542Z,33.90
2022-08-25T14:28:53.397Z,33.90
2022-08-25T14:31:20.093Z,35.30
2022-08-25T14:33:52.901Z,35.60
2022-08-25T14:36:20.888Z,36.00
2022-08-25T14:38:54.541Z,35.90
2022-08-25T14:43:50.483Z,36.70
2022-08-25T14:46:20.243Z,36.60
2022-08-25T14:48:49.447Z,36.30
2022-08-25T14:51:16.388Z,36.30
2022-08-25T14:53:43.554Z,36.70
2022-08-25T14:58:51.083Z,36.50
2022-08-25T15:01:28.803Z,37.40
2022-08-25T15:04:15.478Z,36.10
2022-08-25T15:06:43.533Z,35.80
2022-08-25T15:09:13.131Z,36.10
2022-08-25T15:11:42.042Z,35.20
2022-08-25T15:14:10.735Z,35.70
2022-08-25T15:16:48.052Z,35.40
2022-08-25T15:19:17.748Z,35.40
2022-08-25T15:21:45.341Z,35.70
2022-08-25T15:24:17.697Z,35.50
2022-08-25T15:26:44.522Z,36.00
2022-08-25T15:29:11.345Z,36.70
2022-08-25T15:31:39.873Z,37.00
2022-08-25T15:34:11.791Z,37.20
2022-08-25T15:36:38.969Z,36.70
2022-08-25T15:39:05.996Z,36.20
2022-08-25T15:41:32.716Z,35.60
2022-08-25T15:44:00.204Z,35.20
2022-08-25T15:46:30.036Z,34.10
2022-08-25T15:48:58.177Z,33.20
2022-08-25T15:53:52.125Z,33.10
2022-08-25T15:56:26.636Z,33.30
2022-08-25T15:58:54.332Z,33.50
2022-08-25T16:01:23.698Z,33.20
2022-08-25T16:06:18.871Z,32.40
2022-08-25T16:08:45.581Z,32.00
2022-08-25T16:11:21.018Z,31.60
2022-08-25T16:13:57.839Z,31.90
2022-08-25T16:16:26.289Z,32.30
2022-08-25T16:18:53.342Z,33.00
2022-08-25T16:23:48.842Z,34.20
2022-08-25T16:26:16.298Z,34.20
2022-08-25T16:28:45.173Z,33.90
2022-08-25T16:31:13.093Z,33.80
2022-08-25T16:36:06.989Z,34.00
2022-08-25T16:41:08.670Z,33.10
2022-08-25T16:43:36.154Z,32.80
2022-08-25T16:46:05.187Z,32.00
2022-08-25T16:48:33.670Z,31.60
2022-08-25T16:51:00.579Z,31.60
2022-08-25T16:53:45.973Z,31.10
2022-08-25T16:56:15.725Z,30.80
2022-08-25T16:58:42.453Z,30.60
2022-08-25T17:01:12.815Z,30.40
2022-08-25T17:08:38.010Z,30.00
2022-08-25T17:11:26.581Z,30.20
2022-08-25T17:18:48.228Z,29.30
2022-08-25T17:23:46.269Z,29.00
2022-08-25T17:28:41.566Z,28.80
2022-08-25T17:31:08.386Z,28.60
2022-08-25T17:33:35.732Z,28.70
2022-08-25T17:36:03.285Z,28.30
2022-08-25T17:38:33.381Z,28.30
2022-08-25T17:41:01.809Z,28.10
2022-08-25T17:45:59.442Z,27.90
2022-08-25T17:48:26.731Z,27.80
2022-08-25T17:50:53.957Z,28.40
2022-08-25T17:53:20.651Z,27.60
2022-08-25T17:55:56.521Z,27.50
2022-08-25T17:58:23.347Z,27.50
2022-08-25T18:00:50.262Z,27.30
2022-08-25T18:03:16.916Z,27.40
2022-08-25T18:05:45.096Z,27.10
2022-08-25T18:08:14.464Z,27.10
2022-08-25T18:10:42.218Z,27.00
2022-08-25T18:13:08.911Z,26.90
2022-08-25T18:15:35.569Z,27.00
2022-08-25T18:18:04.559Z,26.70
2022-08-25T18:22:58.999Z,26.50
2022-08-25T18:25:26.734Z,26.40
2022-08-25T18:27:53.860Z,26.30
2022-08-25T18:30:23.071Z,26.60
2022-08-25T18:32:52.997Z,26.50
2022-08-25T18:35:21.748Z,25.90
2022-08-25T18:38:11.714Z,25.60
2022-08-25T18:40:39.908Z,25.50
2022-08-25T18:45:44.041Z,25.30
2022-08-25T18:48:10.819Z,25.50
2022-08-25T18:55:33.021Z,25.20
2022-08-25T18:58:00.473Z,25.00
2022-08-25T19:00:28.540Z,25.20
2022-08-25T19:02:56.194Z,24.90
2022-08-25T19:15:18.650Z,24.40
2022-08-25T19:17:53.127Z,24.30
2022-08-25T19:22:47.224Z,24.10
2022-08-25T19:37:32.964Z,23.60
2022-08-25T19:39:59.732Z,23.70
2022-08-25T19:42:37.801Z,23.80
2022-08-25T19:45:08.972Z,24.00
2022-08-25T19:54:58.522Z,23.40
2022-08-25T19:59:55.655Z,23.30
2022-08-25T20:02:28.331Z,23.30
2022-08-25T20:04:58.312Z,23.00
2022-08-25T20:07:29.061Z,22.70
2022-08-25T20:14:50.291Z,22.40
2022-08-25T20:17:24.598Z,22.20
2022-08-25T20:19:57.441Z,21.80
2022-08-25T20:22:26.696Z,21.60
2022-08-25T20:24:57.434Z,21.60
2022-08-25T20:27:33.046Z,21.50
2022-08-25T20:30:02.674Z,21.80
2022-08-25T20:32:31.408Z,22.00
2022-08-25T20:34:58.129Z,21.90
2022-08-25T20:37:25.791Z,21.70
2022-08-25T20:39:52.932Z,22.00
2022-08-25T20:42:19.785Z,22.90
2022-08-25T20:44:47.152Z,21.80
2022-08-25T20:47:14.976Z,21.80
2022-08-25T20:49:44.997Z,21.50
2022-08-25T20:52:13.613Z,21.80
2022-08-25T20:54:44.027Z,21.50
2022-08-25T20:57:16.917Z,22.00
2022-08-25T20:59:43.607Z,22.80
2022-08-25T21:04:37.544Z,21.40
2022-08-25T21:07:06.013Z,21.50
2022-08-25T21:09:32.697Z,21.20
2022-08-25T21:14:27.418Z,21.00
2022-08-25T21:16:54.870Z,22.10
2022-08-25T21:19:26.555Z,21.30
2022-08-25T21:21:53.933Z,21.70
2022-08-25T21:24:26.242Z,22.10
2022-08-25T21:26:54.160Z,21.40
2022-08-25T21:31:48.088Z,20.90
2022-08-25T21:34:15.621Z,20.70
2022-08-25T21:36:42.517Z,21.70
2022-08-25T21:39:09.995Z,20.60
2022-08-25T21:41:39.106Z,21.50
2022-08-25T21:44:07.254Z,22.10
2022-08-25T21:46:34.617Z,21.30
2022-08-25T21:49:06.108Z,20.50
2022-08-25T21:51:34.721Z,21.80
2022-08-25T21:54:11.446Z,20.30
2022-08-25T21:56:40.232Z,20.10
2022-08-25T21:59:08.323Z,20.40
2022-08-25T22:01:35.687Z,20.70
2022-08-25T22:04:02.957Z,20.10
2022-08-25T22:06:30.279Z,20.30
2022-08-25T22:08:56.948Z,19.90
2022-08-25T22:11:26.429Z,19.60
2022-08-25T22:16:21.447Z,19.40
2022-08-25T22:18:48.723Z,20.00
2022-08-25T22:21:17.704Z,19.80
2022-08-25T22:23:44.731Z,20.70
2022-08-25T22:26:11.898Z,20.30
2022-08-25T22:28:39.207Z,20.30
2022-08-25T22:31:10.326Z,19.50
2022-08-25T22:33:37.426Z,19.80
2022-08-25T22:36:17.068Z,20.60
2022-08-25T22:38:45.391Z,19.50
2022-08-25T22:41:12.277Z,20.30
2022-08-25T22:43:53.019Z,20.30
2022-08-25T22:46:20.813Z,19.60
2022-08-25T22:48:48.237Z,20.60
2022-08-25T22:51:18.557Z,20.30
2022-08-25T22:53:46.819Z,19.60
2022-08-25T22:56:14.188Z,19.30
2022-08-25T22:58:44.060Z,20.00
2022-08-25T23:01:19.679Z,20.10
2022-08-25T23:03:47.692Z,20.00
2022-08-25T23:06:17.059Z,20.40
2022-08-25T23:08:45.450Z,19.40
2022-08-25T23:11:12.869Z,19.60
2022-08-25T23:13:42.001Z,19.20
2022-08-25T23:16:09.511Z,19.00
2022-08-25T23:18:39.534Z,19.20
2022-08-25T23:21:28.767Z,19.80
2022-08-25T23:24:01.685Z,19.40
2022-08-25T23:26:29.401Z,19.40
2022-08-25T23:28:56.119Z,19.10
2022-08-25T23:31:22.819Z,19.40
2022-08-25T23:41:19.752Z,20.10
2022-08-25T23:46:15.869Z,20.20
2022-08-25T23:48:42.852Z,20.00
2022-08-25T23:51:10.124Z,19.40
2022-08-25T23:53:36.867Z,19.60
2022-08-25T23:56:05.543Z,20.00
2022-08-25T23:58:32.674Z,18.90
